Time;durP1;ratioP1;P1;durP2;ratioP2;P2;SDS_P1;SDS_P2;PMS_P1;PMS_P2;Temp;Humidity;BMP_temperature;BMP_pressure;BME280_temperature;BME280_humidity;BME280_pressure;Samples;Min_cycle;Max_cycle;Signal;HPM_P1;HPM_P2
2023/05/18 00:02:00;;;;;;;1.47;1.37;;;20.20;44.90;;;;;;5003231;28;20426;-74
2023/05/18 00:04:27;;;;;;;2.23;1.60;;;20.20;44.90;;;;;;5018056;28;20452;-74
2023/05/18 00:06:55;;;;;;;1.40;1.30;;;20.20;44.90;;;;;;4987786;28;21423;-74
2023/05/18 00:09:25;;;;;;;2.77;1.20;;;20.20;44.90;;;;;;5001499;28;20406;-74
2023/05/18 00:11:54;;;;;;;2.50;1.20;;;20.20;45.10;;;;;;4998163;28;20504;-74
2023/05/18 00:14:20;;;;;;;1.53;1.43;;;20.20;44.90;;;;;;4997057;28;20424;-74
2023/05/18 00:16:46;;;;;;;2.07;1.50;;;20.20;44.90;;;;;;5004211;28;20457;-74
2023/05/18 00:19:14;;;;;;;1.73;1.20;;;20.20;44.90;;;;;;5002569;28;20413;-74
2023/05/18 00:21:45;;;;;;;1.30;1.20;;;20.20;44.90;;;;;;5002264;28;20247;-74
2023/05/18 00:24:11;;;;;;;2.70;2.50;;;20.20;44.90;;;;;;4997501;28;20444;-74
2023/05/18 00:26:38;;;;;;;1.50;1.20;;;20.20;44.90;;;;;;4992983;28;20622;-74
2023/05/18 00:29:03;;;;;;;1.37;1.27;;;20.20;44.90;;;;;;5003872;28;20511;-74
2023/05/18 00:31:29;;;;;;;1.80;1.70;;;20.20;44.90;;;;;;5005209;28;20412;-74
2023/05/18 00:33:54;;;;;;;1.30;1.20;;;20.20;44.90;;;;;;5000524;28;20608;-74
2023/05/18 00:36:20;;;;;;;1.47;1.37;;;20.20;44.90;;;;;;5011290;28;20605;-74
2023/05/18 00:38:45;;;;;;;2.10;1.23;;;20.20;44.90;;;;;;4999924;28;20616;-74
2023/05/18 00:41:11;;;;;;;1.20;1.10;;;20.20;44.90;;;;;;5008562;28;20220;-74
2023/05/18 00:43:40;;;;;;;1.60;1.50;;;20.20;44.90;;;;;;5006469;28;20269;-75
2023/05/18 00:46:05;;;;;;;1.40;1.30;;;20.20;44.90;;;;;;5008209;28;20223;-74
2023/05/18 00:48:31;;;;;;;1.43;1.20;;;20.20;44.90;;;;;;4986280;28;20475;-74
2023/05/18 00:50:56;;;;;;;1.40;1.30;;;20.20;44.90;;;;;;5011000;28;20298;-74
2023/05/18 00:53:22;;;;;;;1.50;1.40;;;20.20;44.90;;;;;;5011043;28;20705;-74
2023/05/18 00:55:47;;;;;;;2.63;1.30;;;20.20;44.90;;;;;;5000255;28;20235;-74
2023/05/18 00:58:13;;;;;;;1.20;1.10;;;20.20;44.90;;;;;;4997373;28;20781;-74
2023/05/18 01:00:39;;;;;;;1.43;1.33;;;20.20;44.90;;;;;;5007926;28;20230;-74
2023/05/18 01:03:08;;;;;;;1.37;1.27;;;20.20;44.90;;;;;;5013251;28;20227;-74
2023/05/18 01:05:34;;;;;;;1.50;1.40;;;20.20;44.90;;;;;;4997765;28;20431;-74
2023/05/18 01:08:01;;;;;;;1.40;1.30;;;20.20;44.90;;;;;;5007886;28;20543;-73
2023/05/18 01:10:29;;;;;;;1.27;1.17;;;20.20;44.90;;;;;;5010075;28;20223;-75
2023/05/18 01:13:04;;;;;;;1.40;1.20;;;20.10;44.80;;;;;;5003747;28;20448;-74
2023/05/18 01:15:37;;;;;;;1.27;1.17;;;20.20;44.90;;;;;;5012427;28;20468;-74
2023/05/18 01:18:27;;;;;;;1.73;1.27;;;20.20;44.90;;;;;;5003877;28;20456;-74
2023/05/18 01:21:48;;;;;;;1.47;1.37;;;20.20;44.90;;;;;;5000370;28;20424;-74
2023/05/18 01:24:35;;;;;;;2.80;1.47;;;20.20;44.90;;;;;;5002306;28;20458;-74
2023/05/18 01:27:05;;;;;;;1.57;1.40;;;20.20;44.90;;;;;;5002705;28;20467;-74
2023/05/18 01:29:31;;;;;;;1.30;1.20;;;20.20;44.90;;;;;;5007097;28;20913;-74
2023/05/18 01:31:57;;;;;;;1.40;1.30;;;20.20;44.90;;;;;;5004648;28;20442;-74
2023/05/18 01:34:23;;;;;;;1.30;1.20;;;20.20;44.90;;;;;;4987082;28;22004;-74
2023/05/18 01:36:48;;;;;;;1.60;1.50;;;20.20;44.90;;;;;;4995023;28;20302;-74
2023/05/18 01:39:15;;;;;;;1.67;1.30;;;20.20;44.80;;;;;;5004809;28;20223;-75
2023/05/18 01:41:55;;;;;;;1.40;1.30;;;20.10;44.80;;;;;;5011246;28;20812;-74
2023/05/18 01:44:32;;;;;;;1.60;1.50;;;20.20;44.80;;;;;;5002628;28;20543;-74
2023/05/18 01:47:07;;;;;;;1.40;1.27;;;20.20;44.90;;;;;;5000078;28;20516;-74
2023/05/18 01:49:44;;;;;;;1.50;1.30;;;20.10;44.80;;;;;;4997865;28;20496;-74
2023/05/18 01:52:17;;;;;;;1.40;1.27;;;20.20;44.90;;;;;;5014767;28;20475;-74
2023/05/18 01:54:48;;;;;;;1.40;1.30;;;20.10;44.80;;;;;;5011620;28;20518;-74
2023/05/18 01:57:15;;;;;;;1.87;1.40;;;20.10;44.80;;;;;;4997595;28;20435;-74
2023/05/18 01:59:41;;;;;;;1.10;1.00;;;20.10;44.80;;;;;;5009314;28;20452;-74
2023/05/18 02:02:07;;;;;;;1.30;1.20;;;20.10;44.80;;;;;;5011937;28;20467;-74
2023/05/18 02:04:34;;;;;;;1.43;1.33;;;20.10;44.70;;;;;;5009586;28;21028;-74
2023/05/18 02:06:59;;;;;;;1.43;1.33;;;20.10;44.80;;;;;;5004177;28;20589;-74
2023/05/18 02:09:25;;;;;;;1.50;1.40;;;20.10;44.80;;;;;;5002711;28;20418;-75
2023/05/18 02:11:51;;;;;;;1.57;1.30;;;20.10;44.80;;;;;;4998917;28;20235;-74
2023/05/18 02:14:16;;;;;;;1.30;1.20;;;20.10;44.80;;;;;;4997704;28;20269;-74
2023/05/18 02:16:45;;;;;;;1.77;1.67;;;20.10;44.80;;;;;;4999521;28;20226;-74
2023/05/18 02:19:14;;;;;;;1.33;1.20;;;20.10;44.80;;;;;;4989791;28;20713;-74
2023/05/18 02:21:42;;;;;;;1.40;1.30;;;20.10;44.80;;;;;;5005770;28;20468;-75
2023/05/18 02:24:07;;;;;;;2.03;1.10;;;20.10;44.80;;;;;;4997604;28;20568;-74
2023/05/18 02:26:33;;;;;;;1.43;1.33;;;20.10;44.80;;;;;;5006129;28;20442;-74
2023/05/18 02:28:58;;;;;;;1.20;1.10;;;20.10;44.70;;;;;;5001470;28;20235;-74
2023/05/18 02:31:26;;;;;;;1.53;1.43;;;20.10;44.80;;;;;;4995935;28;20223;-74
2023/05/18 02:33:52;;;;;;;1.50;1.40;;;20.10;44.80;;;;;;4984950;28;20258;-74
2023/05/18 02:36:17;;;;;;;1.30;1.20;;;20.10;44.80;;;;;;5011601;28;21062;-74
2023/05/18 02:38:43;;;;;;;1.40;1.30;;;20.10;44.80;;;;;;5005772;28;20557;-74
2023/05/18 02:41:09;;;;;;;1.40;1.30;;;20.10;44.80;;;;;;5003238;28;20239;-74
2023/05/18 02:43:35;;;;;;;1.43;1.33;;;20.10;44.70;;;;;;4993050;28;20284;-74
2023/05/18 02:46:02;;;;;;;1.50;1.40;;;20.10;44.80;;;;;;5000210;28;20966;-74
2023/05/18 02:48:28;;;;;;;1.27;1.17;;;20.10;44.80;;;;;;5007444;28;21351;-74
2023/05/18 02:50:53;;;;;;;1.40;1.30;;;20.10;44.80;;;;;;5004610;28;20509;-74
2023/05/18 02:53:20;;;;;;;1.33;1.07;;;20.10;44.80;;;;;;5002056;28;20234;-74
2023/05/18 02:55:46;;;;;;;1.33;1.23;;;20.10;44.80;;;;;;5005511;28;20234;-74
2023/05/18 02:58:12;;;;;;;1.30;1.20;;;20.10;44.80;;;;;;5009345;28;20472;-74
2023/05/18 03:00:38;;;;;;;1.73;1.40;;;20.10;44.80;;;;;;5007279;28;20235;-74
2023/05/18 03:03:04;;;;;;;1.50;1.40;;;20.10;44.80;;;;;;5003566;28;20443;-74
2023/05/18 03:05:29;;;;;;;1.60;1.50;;;20.10;44.80;;;;;;5003755;28;20227;-74
2023/05/18 03:07:56;;;;;;;1.20;1.10;;;20.10;44.80;;;;;;4998944;28;20293;-74
2023/05/18 03:10:23;;;;;;;1.50;1.40;;;20.10;44.80;;;;;;4992003;28;20714;-74
2023/05/18 03:12:48;;;;;;;1.87;1.77;;;20.10;44.80;;;;;;5006980;28;20465;-74
2023/05/18 03:15:15;;;;;;;1.37;1.10;;;20.10;44.80;;;;;;5003264;28;20427;-74
2023/05/18 03:17:41;;;;;;;1.43;1.33;;;20.10;44.80;;;;;;5009239;28;20233;-74
2023/05/18 03:20:10;;;;;;;1.20;1.10;;;20.10;44.80;;;;;;5008123;28;21035;-74
2023/05/18 03:22:38;;;;;;;1.30;1.20;;;20.10;44.70;;;;;;4999871;28;21051;-74
2023/05/18 03:25:04;;;;;;;1.30;1.20;;;20.10;44.80;;;;;;4999923;28;20467;-74
2023/05/18 03:27:30;;;;;;;1.30;1.20;;;20.10;44.70;;;;;;5002241;28;20435;-74
2023/05/18 03:29:56;;;;;;;1.37;1.20;;;20.10;44.80;;;;;;5007550;28;20231;-74
2023/05/18 03:32:23;;;;;;;1.57;1.20;;;20.10;44.80;;;;;;5009737;28;20576;-74
2023/05/18 03:34:52;;;;;;;1.50;1.40;;;20.00;44.80;;;;;;5012167;28;20318;-74
2023/05/18 03:37:17;;;;;;;1.20;1.10;;;20.10;44.70;;;;;;5016574;28;20439;-74
2023/05/18 03:39:43;;;;;;;1.40;1.30;;;20.10;44.80;;;;;;5001751;28;21351;-74
2023/05/18 03:42:09;;;;;;;1.33;1.23;;;20.10;44.80;;;;;;5012446;28;20262;-74
2023/05/18 03:44:34;;;;;;;1.37;1.27;;;20.10;44.80;;;;;;5012747;28;20218;-74
2023/05/18 03:47:00;;;;;;;2.00;1.37;;;20.10;44.80;;;;;;5016748;28;20334;-74
2023/05/18 03:49:25;;;;;;;1.30;1.20;;;20.10;45.60;;;;;;5014104;28;20219;-73
2023/05/18 03:51:53;;;;;;;1.40;1.30;;;20.10;44.80;;;;;;5013992;28;20231;-74
2023/05/18 03:54:19;;;;;;;1.13;1.03;;;20.10;44.70;;;;;;5011965;28;20266;-74
2023/05/18 03:56:46;;;;;;;1.67;1.50;;;20.10;44.80;;;;;;5009624;28;20487;-74
2023/05/18 03:59:12;;;;;;;1.30;1.20;;;20.10;44.80;;;;;;5000027;28;20468;-74
2023/05/18 04:01:40;;;;;;;1.90;1.43;;;20.10;44.80;;;;;;5008017;28;20806;-74
2023/05/18 04:04:06;;;;;;;1.30;1.20;;;20.10;44.80;;;;;;5014656;28;20451;-74
2023/05/18 04:06:34;;;;;;;1.40;1.30;;;20.10;44.80;;;;;;5015057;28;20447;-74
2023/05/18 04:09:03;;;;;;;1.30;1.20;;;20.10;44.80;;;;;;4990647;28;20218;-74
2023/05/18 04:11:29;;;;;;;1.70;1.60;;;20.00;44.70;;;;;;5016408;28;20949;-74
2023/05/18 04:13:56;;;;;;;2.73;1.30;;;20.10;44.80;;;;;;4987899;28;20443;-74
2023/05/18 04:16:22;;;;;;;1.60;1.50;;;20.10;44.80;;;;;;4995595;28;21141;-74
2023/05/18 04:18:48;;;;;;;1.40;1.30;;;20.10;44.70;;;;;;4996907;28;20454;-74
2023/05/18 04:21:14;;;;;;;1.40;1.30;;;20.10;44.80;;;;;;5000039;28;20322;-74
2023/05/18 04:23:40;;;;;;;1.30;1.20;;;20.10;44.80;;;;;;5000737;28;20568;-74
2023/05/18 04:26:06;;;;;;;1.37;1.27;;;20.00;44.70;;;;;;4998722;28;20479;-74
2023/05/18 04:28:32;;;;;;;1.50;1.40;;;20.00;44.70;;;;;;4999760;28;20691;-74
2023/05/18 04:30:58;;;;;;;1.40;1.30;;;20.10;44.70;;;;;;4989461;28;20286;-74
2023/05/18 04:33:24;;;;;;;1.93;1.83;;;20.10;44.80;;;;;;4998666;28;20234;-74
2023/05/18 04:35:57;;;;;;;1.40;1.30;;;20.10;44.70;;;;;;5002877;28;20468;-74
2023/05/18 04:38:23;;;;;;;1.73;1.30;;;20.10;44.70;;;;;;4983242;28;20248;-76
2023/05/18 04:40:49;;;;;;;1.77;1.47;;;20.10;44.80;;;;;;5001830;28;23090;-72
2023/05/18 04:43:17;;;;;;;1.40;1.30;;;20.10;44.80;;;;;;5001052;28;20552;-74
2023/05/18 04:45:45;;;;;;;1.93;1.70;;;20.10;44.70;;;;;;5015167;28;20305;-74
2023/05/18 04:48:18;;;;;;;2.50;1.40;;;20.00;45.50;;;;;;4988426;28;20464;-76
2023/05/18 04:50:44;;;;;;;4.83;1.63;;;20.10;44.80;;;;;;5006129;28;20492;-75
2023/05/18 04:53:11;;;;;;;1.77;1.30;;;20.00;44.70;;;;;;5022882;28;20455;-76
2023/05/18 04:55:37;;;;;;;1.40;1.30;;;20.00;44.60;;;;;;5023522;28;20438;-75
2023/05/18 04:58:03;;;;;;;1.60;1.50;;;20.10;45.20;;;;;;5021024;28;20490;-75
2023/05/18 05:00:29;;;;;;;1.40;1.30;;;20.00;44.40;;;;;;5018749;28;20867;-75
2023/05/18 05:02:56;;;;;;;1.30;1.20;;;20.10;44.50;;;;;;5023741;28;20444;-75
2023/05/18 05:05:22;;;;;;;2.17;1.30;;;20.10;44.30;;;;;;5024293;28;20658;-75
2023/05/18 05:07:52;;;;;;;1.50;1.40;;;20.10;45.10;;;;;;5009930;28;20488;-75
2023/05/18 05:10:19;;;;;;;1.60;1.50;;;20.10;44.20;;;;;;5003968;28;20442;-75
2023/05/18 05:12:45;;;;;;;1.50;1.40;;;20.10;44.20;;;;;;5021161;28;20902;-75
2023/05/18 05:15:10;;;;;;;1.40;1.30;;;20.10;44.10;;;;;;5024831;28;20446;-76
2023/05/18 05:17:36;;;;;;;1.57;1.47;;;20.10;44.20;;;;;;5019403;28;20693;-75
2023/05/18 05:20:03;;;;;;;1.40;1.30;;;20.10;44.00;;;;;;5034115;28;20271;-75
2023/05/18 05:22:28;;;;;;;1.40;1.30;;;20.10;44.10;;;;;;5002503;28;20215;-74
2023/05/18 05:24:54;;;;;;;1.50;1.40;;;20.10;44.00;;;;;;5011307;28;20470;-75
2023/05/18 05:27:19;;;;;;;1.50;1.40;;;20.10;43.90;;;;;;5017155;28;20240;-75
2023/05/18 05:29:47;;;;;;;1.70;1.60;;;20.10;43.90;;;;;;5025706;28;20238;-75
2023/05/18 05:32:13;;;;;;;1.70;1.60;;;20.10;43.90;;;;;;5002317;28;20302;-75
2023/05/18 05:34:39;;;;;;;1.77;1.20;;;20.10;43.80;;;;;;5020434;28;21064;-75
2023/05/18 05:37:05;;;;;;;24.13;2.23;;;20.10;43.80;;;;;;5016815;28;20255;-75
2023/05/18 05:39:30;;;;;;;2.27;1.67;;;20.10;43.80;;;;;;5014385;28;20995;-76
2023/05/18 05:41:57;;;;;;;1.53;1.43;;;20.10;43.70;;;;;;5021001;28;20226;-75
2023/05/18 05:44:23;;;;;;;1.30;1.20;;;20.10;43.70;;;;;;5003994;28;20215;-73
2023/05/18 05:46:48;;;;;;;1.50;1.40;;;20.10;43.60;;;;;;5009455;28;20450;-74
2023/05/18 05:49:14;;;;;;;1.70;1.60;;;20.10;43.70;;;;;;5017501;28;20651;-74
2023/05/18 05:51:39;;;;;;;1.27;1.17;;;20.10;43.60;;;;;;4990871;28;20227;-73
2023/05/18 05:54:05;;;;;;;1.53;1.43;;;20.10;43.60;;;;;;5005188;28;20633;-73
2023/05/18 05:56:31;;;;;;;1.40;1.30;;;20.10;43.60;;;;;;5008656;28;20235;-74
2023/05/18 05:58:56;;;;;;;1.47;1.37;;;20.10;43.50;;;;;;5006610;28;20251;-74
2023/05/18 06:01:21;;;;;;;1.43;1.33;;;20.10;43.50;;;;;;5006695;28;20254;-73
2023/05/18 06:03:47;;;;;;;1.70;1.40;;;20.10;43.50;;;;;;4989719;28;20691;-74
2023/05/18 06:06:13;;;;;;;2.20;1.43;;;20.10;43.50;;;;;;5003611;28;20258;-74
2023/05/18 06:08:39;;;;;;;2.50;1.40;;;20.10;43.40;;;;;;5010335;28;20225;-74
2023/05/18 06:11:05;;;;;;;2.70;1.60;;;20.10;43.40;;;;;;5000513;28;20247;-74
2023/05/18 06:13:31;;;;;;;1.50;1.40;;;20.10;43.40;;;;;;5012068;28;20464;-73
2023/05/18 06:15:56;;;;;;;1.60;1.50;;;20.10;43.30;;;;;;5009713;28;20223;-73
2023/05/18 06:18:22;;;;;;;1.70;1.60;;;20.10;43.30;;;;;;5007256;28;20238;-74
2023/05/18 06:20:48;;;;;;;1.53;1.43;;;20.10;43.30;;;;;;5004360;28;20227;-73
2023/05/18 06:23:13;;;;;;;1.70;1.60;;;20.10;43.30;;;;;;4998651;28;20228;-73
2023/05/18 06:25:39;;;;;;;2.83;1.50;;;20.10;43.20;;;;;;4999862;28;20223;-74
2023/05/18 06:28:05;;;;;;;3.80;1.70;;;20.10;43.20;;;;;;5012015;28;20597;-73
2023/05/18 06:30:30;;;;;;;1.90;1.80;;;20.10;43.20;;;;;;5008860;28;20239;-73
2023/05/18 06:32:56;;;;;;;1.57;1.40;;;20.10;43.10;;;;;;4989497;28;20218;-72
2023/05/18 06:35:22;;;;;;;3.10;1.70;;;20.10;43.10;;;;;;4999078;28;20234;-71
2023/05/18 06:37:48;;;;;;;2.17;1.70;;;20.10;43.10;;;;;;4994768;28;20637;-71
2023/05/18 06:40:14;;;;;;;2.27;1.40;;;20.10;43.10;;;;;;5005852;28;21827;-71
2023/05/18 06:42:39;;;;;;;1.80;1.50;;;20.10;43.10;;;;;;4999362;28;20224;-71
2023/05/18 06:45:05;;;;;;;2.20;2.10;;;20.10;43.00;;;;;;5004062;28;20823;-72
2023/05/18 06:47:31;;;;;;;1.70;1.60;;;20.10;43.00;;;;;;4995595;28;20237;-71
2023/05/18 06:49:57;;;;;;;2.27;1.63;;;20.10;43.00;;;;;;5000378;28;20437;-71
2023/05/18 06:52:22;;;;;;;2.53;1.60;;;20.10;42.90;;;;;;5009497;28;20336;-71
2023/05/18 06:54:48;;;;;;;1.60;1.50;;;20.10;42.90;;;;;;4995811;28;20288;-71
2023/05/18 06:57:13;;;;;;;1.70;1.60;;;20.10;42.90;;;;;;4987205;28;20234;-71
2023/05/18 06:59:39;;;;;;;2.17;1.60;;;20.10;42.80;;;;;;5007765;28;21142;-71
2023/05/18 07:02:05;;;;;;;3.60;2.20;;;20.10;42.80;;;;;;4997363;28;20260;-71
2023/05/18 07:04:31;;;;;;;2.30;2.10;;;20.10;42.80;;;;;;5008549;28;20223;-71
2023/05/18 07:06:56;;;;;;;2.70;1.70;;;20.10;42.70;;;;;;5002999;28;20432;-69
2023/05/18 07:09:22;;;;;;;1.97;1.60;;;20.10;42.70;;;;;;4997468;28;20248;-69
2023/05/18 07:11:48;;;;;;;1.87;1.60;;;20.10;42.60;;;;;;4990496;28;20235;-69
2023/05/18 07:14:13;;;;;;;2.17;1.97;;;20.10;42.60;;;;;;4991115;28;20827;-70
2023/05/18 07:16:39;;;;;;;1.77;1.67;;;20.10;42.60;;;;;;5007382;28;20227;-69
2023/05/18 07:19:05;;;;;;;1.60;1.50;;;20.10;42.60;;;;;;5006018;28;20233;-70
2023/05/18 07:21:30;;;;;;;2.27;1.90;;;20.10;42.50;;;;;;5007909;28;20792;-69
2023/05/18 07:23:56;;;;;;;1.77;1.60;;;20.10;42.40;;;;;;5009322;28;20218;-70
2023/05/18 07:26:21;;;;;;;1.80;1.67;;;20.10;42.30;;;;;;5005556;28;20250;-75
2023/05/18 07:28:47;;;;;;;1.70;1.60;;;20.10;42.30;;;;;;5002137;28;20223;-73
2023/05/18 07:31:15;;;;;;;2.10;1.90;;;20.10;42.30;;;;;;4997957;28;20229;-73
2023/05/18 07:33:41;;;;;;;4.20;1.70;;;20.20;42.30;;;;;;4997128;28;20212;-72
2023/05/18 07:36:06;;;;;;;3.10;1.77;;;20.20;42.30;;;;;;4998770;28;20460;-71
2023/05/18 07:38:32;;;;;;;4.33;1.83;;;20.20;42.30;;;;;;5011163;28;20321;-71
2023/05/18 07:40:58;;;;;;;3.33;1.57;;;20.20;42.30;;;;;;5015170;28;20293;-71
2023/05/18 07:43:24;;;;;;;1.77;1.63;;;20.20;42.20;;;;;;4991460;28;20694;-70
2023/05/18 07:45:50;;;;;;;2.30;1.93;;;20.10;42.10;;;;;;5015543;28;20451;-70
2023/05/18 07:48:15;;;;;;;4.50;1.80;;;20.20;42.20;;;;;;5014436;28;20273;-72
2023/05/18 07:50:41;;;;;;;2.50;1.60;;;20.20;42.20;;;;;;5020551;28;20227;-72
2023/05/18 07:53:07;;;;;;;2.93;1.77;;;20.20;42.20;;;;;;4995176;28;20222;-73
2023/05/18 07:55:32;;;;;;;4.53;1.87;;;20.20;42.20;;;;;;5017470;28;20580;-73
2023/05/18 07:57:59;;;;;;;10.27;2.13;;;20.20;42.20;;;;;;5018068;28;20226;-71
2023/05/18 08:00:25;;;;;;;3.90;2.53;;;20.20;42.20;;;;;;5022802;28;20222;-73
2023/05/18 08:02:51;;;;;;;2.50;1.80;;;20.30;42.30;;;;;;5006497;28;20820;-72
2023/05/18 08:05:17;;;;;;;3.63;1.70;;;20.20;42.20;;;;;;5018777;28;20256;-72
2023/05/18 08:07:43;;;;;;;4.80;2.37;;;20.30;42.30;;;;;;4999769;28;20282;-72
2023/05/18 08:10:09;;;;;;;1.90;1.67;;;20.30;42.30;;;;;;5023068;28;20830;-71
2023/05/18 08:12:35;;;;;;;2.20;1.50;;;20.30;42.30;;;;;;5012497;28;20249;-72
2023/05/18 08:15:00;;;;;;;5.10;1.90;;;20.30;42.30;;;;;;5003325;28;20419;-71
2023/05/18 08:17:26;;;;;;;11.40;2.37;;;20.30;42.40;;;;;;4998632;28;20254;-71
2023/05/18 08:19:52;;;;;;;5.77;2.47;;;20.30;42.40;;;;;;5017323;28;20217;-72
2023/05/18 08:22:18;;;;;;;5.47;2.10;;;20.30;42.40;;;;;;5000692;28;20229;-71
2023/05/18 08:24:44;;;;;;;5.20;1.87;;;20.30;42.40;;;;;;4998902;28;20464;-72
2023/05/18 08:27:10;;;;;;;7.40;2.30;;;20.30;42.40;;;;;;5000657;28;20231;-73
2023/05/18 08:29:36;;;;;;;8.93;2.40;;;20.40;42.50;;;;;;5003156;28;20786;-72
2023/05/18 08:32:01;;;;;;;4.27;1.87;;;20.40;42.50;;;;;;5012720;28;20253;-71
2023/05/18 08:34:28;;;;;;;9.10;1.80;;;20.40;42.50;;;;;;5016513;28;20472;-71
2023/05/18 08:36:54;;;;;;;8.50;2.10;;;20.40;42.50;;;;;;5014804;28;20212;-71
2023/05/18 08:39:21;;;;;;;6.33;2.10;;;20.40;42.60;;;;;;5016818;28;20456;-72
2023/05/18 08:42:02;;;;;;;1.73;1.63;;;20.40;42.60;;;;;;5016556;28;20310;-73
2023/05/18 08:44:39;;;;;;;12.63;2.00;;;20.40;42.60;;;;;;5014465;28;20435;-72
2023/05/18 08:47:08;;;;;;;5.83;2.77;;;20.40;42.60;;;;;;5010271;28;20490;-72
2023/05/18 08:49:35;;;;;;;9.63;1.97;;;20.40;42.60;;;;;;5017074;28;20459;-72
2023/05/18 08:52:03;;;;;;;5.90;2.07;;;20.40;42.60;;;;;;5001283;28;20857;-72
2023/05/18 08:54:30;;;;;;;7.57;2.07;;;20.40;42.70;;;;;;5011875;28;20463;-72
2023/05/18 08:56:57;;;;;;;23.83;3.17;;;20.40;42.60;;;;;;4996910;28;20466;-71
2023/05/18 08:59:25;;;;;;;15.50;3.27;;;20.40;42.70;;;;;;5015195;28;20598;-73
2023/05/18 09:01:53;;;;;;;24.03;3.93;;;20.40;42.60;;;;;;5017275;28;20434;-73
2023/05/18 09:04:20;;;;;;;6.13;2.40;;;20.40;42.70;;;;;;5014020;28;21060;-72
2023/05/18 09:06:47;;;;;;;8.30;2.90;;;20.40;42.70;;;;;;5020183;28;20976;-72
2023/05/18 09:09:13;;;;;;;4.93;2.03;;;20.40;42.70;;;;;;5015997;28;20447;-72
2023/05/18 09:11:40;;;;;;;7.30;2.43;;;20.40;42.70;;;;;;5019335;28;20483;-73
2023/05/18 09:14:06;;;;;;;8.43;2.10;;;20.40;42.70;;;;;;5012821;28;20448;-73
2023/05/18 09:16:32;;;;;;;2.63;2.30;;;20.40;42.70;;;;;;5020569;28;20510;-73
2023/05/18 09:18:58;;;;;;;9.03;1.97;;;20.40;42.70;;;;;;5012848;28;20252;-72
2023/05/18 09:21:23;;;;;;;2.90;2.00;;;20.40;42.60;;;;;;5003294;28;20427;-73
2023/05/18 09:23:50;;;;;;;3.60;2.60;;;20.50;42.70;;;;;;5015561;28;20697;-73
2023/05/18 09:26:17;;;;;;;6.53;2.77;;;20.50;43.50;;;;;;5012976;28;20313;-73
2023/05/18 09:28:42;;;;;;;3.50;1.70;;;20.40;42.60;;;;;;5015300;28;20771;-74
2023/05/18 09:31:15;;;;;;;10.40;2.30;;;20.40;42.60;;;;;;5015244;28;20494;-71
2023/05/18 09:33:42;;;;;;;7.70;1.70;;;20.50;42.60;;;;;;5015228;28;20244;-74
2023/05/18 09:36:09;;;;;;;4.00;1.73;;;20.50;42.60;;;;;;5004030;28;20559;-74
2023/05/18 09:38:42;;;;;;;7.13;1.73;;;20.50;42.60;;;;;;4983196;28;20484;-74
2023/05/18 09:41:16;;;;;;;5.83;2.00;;;20.50;42.60;;;;;;5007710;28;20482;-75
2023/05/18 09:43:46;;;;;;;6.03;1.90;;;20.50;42.60;;;;;;5010719;28;20467;-74
2023/05/18 09:46:13;;;;;;;6.93;2.00;;;20.50;42.50;;;;;;5009379;28;20931;-74
2023/05/18 09:48:44;;;;;;;5.77;1.70;;;20.40;42.30;;;;;;5007002;28;20442;-74
2023/05/18 09:51:16;;;;;;;2.50;2.00;;;20.40;42.20;;;;;;5009460;28;20860;-74
2023/05/18 09:53:46;;;;;;;1.60;1.50;;;20.40;42.90;;;;;;5005553;28;20994;-74
2023/05/18 09:56:13;;;;;;;1.90;1.60;;;20.40;42.00;;;;;;5009993;28;20463;-74
2023/05/18 09:58:40;;;;;;;7.67;2.00;;;20.40;41.90;;;;;;5012774;28;20480;-74
2023/05/18 10:01:05;;;;;;;2.17;1.60;;;20.40;41.80;;;;;;5006549;28;20526;-74
2023/05/18 10:03:36;;;;;;;2.67;1.63;;;20.40;41.70;;;;;;5008901;28;20996;-74
2023/05/18 10:06:07;;;;;;;1.70;1.50;;;20.40;41.60;;;;;;5013921;28;20235;-74
2023/05/18 10:08:33;;;;;;;2.63;1.73;;;20.40;41.50;;;;;;4996118;28;20483;-74
2023/05/18 10:10:59;;;;;;;2.17;1.97;;;20.40;41.30;;;;;;4993686;28;20453;-74
2023/05/18 10:13:27;;;;;;;2.60;2.43;;;20.40;41.20;;;;;;5010387;28;20482;-74
2023/05/18 10:15:55;;;;;;;1.43;1.33;;;20.40;41.10;;;;;;5009760;28;20414;-74
2023/05/18 10:18:23;;;;;;;2.57;1.50;;;20.40;41.00;;;;;;5003166;28;20477;-74
2023/05/18 10:20:51;;;;;;;2.20;1.50;;;20.40;41.00;;;;;;5004672;28;20509;-74
2023/05/18 10:23:18;;;;;;;3.50;1.80;;;20.40;40.80;;;;;;5001657;28;20493;-74
2023/05/18 10:25:46;;;;;;;2.20;1.63;;;20.40;40.80;;;;;;4999919;28;20427;-74
2023/05/18 10:28:24;;;;;;;2.33;2.17;;;20.40;40.80;;;;;;4985224;28;20465;-73
2023/05/18 10:30:53;;;;;;;1.87;1.50;;;20.40;40.70;;;;;;5010269;28;20474;-74
2023/05/18 10:33:21;;;;;;;2.70;1.77;;;20.40;40.70;;;;;;4997260;28;20463;-74
2023/05/18 10:35:48;;;;;;;2.00;1.70;;;20.40;40.70;;;;;;5007591;28;20501;-74
2023/05/18 10:38:25;;;;;;;2.00;1.47;;;20.40;40.70;;;;;;4999359;28;20519;-74
2023/05/18 10:40:54;;;;;;;1.43;1.33;;;20.40;40.70;;;;;;5014352;28;20455;-74
2023/05/18 10:43:22;;;;;;;3.10;1.40;;;20.40;40.80;;;;;;5011478;28;20448;-74
2023/05/18 10:45:53;;;;;;;2.13;1.70;;;20.40;40.80;;;;;;5012055;28;21016;-74
2023/05/18 10:48:20;;;;;;;1.40;1.30;;;20.40;40.80;;;;;;5008514;28;20452;-74
2023/05/18 10:50:50;;;;;;;3.23;1.80;;;20.40;40.80;;;;;;5007078;28;20524;-73
2023/05/18 10:53:25;;;;;;;2.00;1.57;;;20.40;40.80;;;;;;5007429;28;26452;-74
2023/05/18 10:55:51;;;;;;;1.83;1.50;;;20.40;40.80;;;;;;4984052;28;20466;-74
2023/05/18 10:58:19;;;;;;;2.17;1.63;;;20.40;40.80;;;;;;5011295;28;20959;-74
2023/05/18 11:01:03;;;;;;;2.13;1.70;;;20.40;40.70;;;;;;5002655;28;20470;-74
2023/05/18 11:03:31;;;;;;;2.23;1.40;;;20.40;40.70;;;;;;4995243;28;20531;-74
2023/05/18 11:06:09;;;;;;;1.70;1.40;;;20.40;40.70;;;;;;5007008;28;21451;-74
2023/05/18 11:08:43;;;;;;;2.13;1.60;;;20.40;40.70;;;;;;5011979;28;20442;-74
2023/05/18 11:11:09;;;;;;;1.40;1.30;;;20.40;40.70;;;;;;5016312;28;20442;-74
2023/05/18 11:13:41;;;;;;;1.73;1.50;;;20.40;40.60;;;;;;5012193;28;20430;-74
2023/05/18 11:16:08;;;;;;;2.07;1.37;;;20.40;40.70;;;;;;5019337;28;20230;-75
2023/05/18 11:18:43;;;;;;;1.53;1.23;;;20.40;40.70;;;;;;5015023;28;20513;-74
2023/05/18 11:21:19;;;;;;;1.73;1.50;;;20.40;40.60;;;;;;4994296;28;20515;-74
2023/05/18 11:24:20;;;;;;;2.93;1.63;;;20.40;40.70;;;;;;4996414;28;20866;-74
2023/05/18 11:26:48;;;;;;;2.40;1.57;;;20.40;40.60;;;;;;5014014;28;20447;-75
2023/05/18 11:29:34;;;;;;;2.07;1.83;;;20.40;40.60;;;;;;4989431;28;20486;-74
2023/05/18 11:32:00;;;;;;;2.20;1.40;;;20.40;40.60;;;;;;5015032;28;20464;-74
2023/05/18 11:34:38;;;;;;;1.70;1.40;;;20.40;40.60;;;;;;5013160;28;20498;-74
2023/05/18 11:37:05;;;;;;;1.43;1.33;;;20.40;40.60;;;;;;5001015;28;20722;-74
2023/05/18 11:39:31;;;;;;;1.70;1.60;;;20.40;40.60;;;;;;5004245;28;20451;-73
2023/05/18 11:42:04;;;;;;;1.63;1.53;;;20.40;40.60;;;;;;5014462;28;21034;-74
2023/05/18 11:44:31;;;;;;;1.73;1.63;;;20.40;40.60;;;;;;5008602;28;20507;-74
2023/05/18 11:47:08;;;;;;;1.50;1.40;;;20.40;40.60;;;;;;4988535;28;20464;-73
2023/05/18 11:49:48;;;;;;;1.50;1.40;;;20.40;40.60;;;;;;5006745;28;20522;-72
2023/05/18 11:52:24;;;;;;;2.20;1.50;;;20.40;40.60;;;;;;4986649;28;20874;-73
2023/05/18 11:55:00;;;;;;;1.93;1.40;;;20.40;40.60;;;;;;5009077;28;20471;-73
2023/05/18 11:57:34;;;;;;;1.83;1.60;;;20.40;40.60;;;;;;5003179;28;20467;-73
2023/05/18 12:00:06;;;;;;;1.90;1.40;;;20.40;40.60;;;;;;5007460;28;20872;-73
2023/05/18 12:02:33;;;;;;;1.50;1.40;;;20.40;40.70;;;;;;5001164;28;20483;-73
2023/05/18 12:04:59;;;;;;;1.70;1.60;;;20.40;40.60;;;;;;5013682;28;20957;-73
2023/05/18 12:07:27;;;;;;;1.97;1.87;;;20.40;40.60;;;;;;5005801;28;21058;-73
2023/05/18 12:10:00;;;;;;;2.80;1.57;;;20.40;41.30;;;;;;5011267;28;20513;-73
2023/05/18 12:12:27;;;;;;;1.67;1.57;;;20.40;40.60;;;;;;5011069;28;20510;-72
2023/05/18 12:14:54;;;;;;;1.40;1.30;;;20.40;40.70;;;;;;5010092;28;20851;-73
2023/05/18 12:17:21;;;;;;;1.73;1.63;;;20.40;40.60;;;;;;4991530;28;20464;-72
2023/05/18 12:19:48;;;;;;;2.80;1.60;;;20.40;40.60;;;;;;4989048;28;20954;-73
2023/05/18 12:22:13;;;;;;;1.70;1.60;;;20.40;40.60;;;;;;5004674;28;20446;-72
2023/05/18 12:24:40;;;;;;;1.60;1.50;;;20.40;40.60;;;;;;5000455;28;20465;-73
2023/05/18 12:27:10;;;;;;;1.80;1.57;;;20.40;40.60;;;;;;5010153;28;20220;-73
2023/05/18 12:29:40;;;;;;;1.70;1.60;;;20.40;40.90;;;;;;5005315;28;20420;-72
2023/05/18 12:32:08;;;;;;;2.40;1.60;;;20.40;40.60;;;;;;4997897;28;20860;-72
2023/05/18 12:34:34;;;;;;;1.70;1.60;;;20.40;40.60;;;;;;4988744;28;20423;-72
2023/05/18 12:37:00;;;;;;;1.60;1.50;;;20.40;40.60;;;;;;5003885;28;20437;-73
2023/05/18 12:39:25;;;;;;;2.00;1.60;;;20.40;40.70;;;;;;5003601;28;20479;-73
2023/05/18 12:41:51;;;;;;;2.13;1.93;;;20.40;40.70;;;;;;5013655;28;20227;-75
2023/05/18 12:44:17;;;;;;;1.70;1.60;;;20.40;40.70;;;;;;5002696;28;20622;-76
2023/05/18 12:46:42;;;;;;;1.60;1.50;;;20.40;40.70;;;;;;5008190;28;20639;-75
2023/05/18 12:49:09;;;;;;;1.50;1.40;;;20.40;40.70;;;;;;5009058;28;20215;-75